sensor_id;sensor_type;location;lat;lon;timestamp;temperature;humidity
23051;DHT22;11693;51.358;12.410;2022-11-25T00:02:19;12.20;99.90
23051;DHT22;11693;51.358;12.410;2022-11-25T00:04:51;12.10;99.90
23051;DHT22;11693;51.358;12.410;2022-11-25T00:07:28;12.10;99.90
23051;DHT22;11693;51.358;12.410;2022-11-25T00:09:54;12.10;99.90
23051;DHT22;11693;51.358;12.410;2022-11-25T00:12:19;12.10;99.90
23051;DHT22;11693;51.358;12.410;2022-11-25T00:14:45;12.00;99.90
23051;DHT22;11693;51.358;12.410;2022-11-25T00:17:10;12.00;99.90
23051;DHT22;11693;51.358;12.410;2022-11-25T00:19:36;12.00;99.90
23051;DHT22;11693;51.358;12.410;2022-11-25T00:22:01;11.90;99.90
23051;DHT22;11693;51.358;12.410;2022-11-25T00:24:27;11.80;99.90
23051;DHT22;11693;51.358;12.410;2022-11-25T00:26:53;11.70;99.90
23051;DHT22;11693;51.358;12.410;2022-11-25T00:29:18;11.70;99.90
23051;DHT22;11693;51.358;12.410;2022-11-25T00:31:44;11.70;99.90
23051;DHT22;11693;51.358;12.410;2022-11-25T00:34:13;11.60;99.90
23051;DHT22;11693;51.358;12.410;2022-11-25T00:36:39;11.60;99.90
23051;DHT22;11693;51.358;12.410;2022-11-25T00:39:16;11.50;99.90
23051;DHT22;11693;51.358;12.410;2022-11-25T00:41:42;11.60;99.90
23051;DHT22;11693;51.358;12.410;2022-11-25T00:44:27;11.50;99.90
23051;DHT22;11693;51.358;12.410;2022-11-25T00:49:33;11.30;99.90
23051;DHT22;11693;51.358;12.410;2022-11-25T00:51:59;11.30;99.90
23051;DHT22;11693;51.358;12.410;2022-11-25T00:54:25;11.30;99.90
23051;DHT22;11693;51.358;12.410;2022-11-25T00:56:51;11.20;99.90
23051;DHT22;11693;51.358;12.410;2022-11-25T00:59:17;11.20;99.90
23051;DHT22;11693;51.358;12.410;2022-11-25T01:01:42;11.20;99.90
23051;DHT22;11693;51.358;12.410;2022-11-25T01:04:08;11.20;99.90
23051;DHT22;11693;51.358;12.410;2022-11-25T01:06:35;11.10;99.90
23051;DHT22;11693;51.358;12.410;2022-11-25T01:09:01;11.10;99.90
23051;DHT22;11693;51.358;12.410;2022-11-25T01:11:27;11.10;99.90
23051;DHT22;11693;51.358;12.410;2022-11-25T01:13:54;10.90;99.90
23051;DHT22;11693;51.358;12.410;2022-11-25T01:16:21;10.90;99.90
23051;DHT22;11693;51.358;12.410;2022-11-25T01:18:47;10.90;99.90
23051;DHT22;11693;51.358;12.410;2022-11-25T01:21:26;10.90;99.90
23051;DHT22;11693;51.358;12.410;2022-11-25T01:23:52;10.80;99.90
23051;DHT22;11693;51.358;12.410;2022-11-25T01:26:20;10.80;99.90
23051;DHT22;11693;51.358;12.410;2022-11-25T01:28:47;10.80;99.90
23051;DHT22;11693;51.358;12.410;2022-11-25T01:31:16;10.90;99.90
23051;DHT22;11693;51.358;12.410;2022-11-25T01:33:43;10.80;99.90
23051;DHT22;11693;51.358;12.410;2022-11-25T01:36:14;10.70;99.90
23051;DHT22;11693;51.358;12.410;2022-11-25T01:38:40;10.70;99.90
23051;DHT22;11693;51.358;12.410;2022-11-25T01:41:12;10.60;99.90
23051;DHT22;11693;51.358;12.410;2022-11-25T01:43:38;10.60;99.90
23051;DHT22;11693;51.358;12.410;2022-11-25T01:49:00;10.50;99.90
23051;DHT22;11693;51.358;12.410;2022-11-25T01:52:03;10.60;99.90
23051;DHT22;11693;51.358;12.410;2022-11-25T01:54:39;10.50;99.90
23051;DHT22;11693;51.358;12.410;2022-11-25T01:57:20;10.60;99.90
23051;DHT22;11693;51.358;12.410;2022-11-25T01:59:49;10.60;99.90
23051;DHT22;11693;51.358;12.410;2022-11-25T02:02:17;10.60;99.90
23051;DHT22;11693;51.358;12.410;2022-11-25T02:04:43;10.60;99.90
23051;DHT22;11693;51.358;12.410;2022-11-25T02:07:21;10.40;99.90
23051;DHT22;11693;51.358;12.410;2022-11-25T02:09:50;10.40;99.90
23051;DHT22;11693;51.358;12.410;2022-11-25T02:12:17;10.40;99.90
23051;DHT22;11693;51.358;12.410;2022-11-25T02:14:44;10.30;99.90
23051;DHT22;11693;51.358;12.410;2022-11-25T02:17:10;10.30;99.90
23051;DHT22;11693;51.358;12.410;2022-11-25T02:19:47;10.20;99.90
23051;DHT22;11693;51.358;12.410;2022-11-25T02:22:24;10.10;99.90
23051;DHT22;11693;51.358;12.410;2022-11-25T02:24:54;10.10;99.90
23051;DHT22;11693;51.358;12.410;2022-11-25T02:27:21;10.00;99.90
23051;DHT22;11693;51.358;12.410;2022-11-25T02:29:47;10.00;99.90
23051;DHT22;11693;51.358;12.410;2022-11-25T02:32:13;10.00;99.90
23051;DHT22;11693;51.358;12.410;2022-11-25T02:34:47;9.90;99.90
23051;DHT22;11693;51.358;12.410;2022-11-25T02:37:14;9.90;99.90
23051;DHT22;11693;51.358;12.410;2022-11-25T02:39:41;9.80;99.90
23051;DHT22;11693;51.358;12.410;2022-11-25T02:42:06;9.80;99.90
23051;DHT22;11693;51.358;12.410;2022-11-25T02:44:32;9.80;99.90
23051;DHT22;11693;51.358;12.410;2022-11-25T02:46:58;9.80;99.90
23051;DHT22;11693;51.358;12.410;2022-11-25T02:49:23;9.80;99.90
23051;DHT22;11693;51.358;12.410;2022-11-25T02:51:58;9.80;99.90
23051;DHT22;11693;51.358;12.410;2022-11-25T02:54:24;9.80;99.90
23051;DHT22;11693;51.358;12.410;2022-11-25T02:56:49;9.70;99.90
23051;DHT22;11693;51.358;12.410;2022-11-25T02:59:15;9.70;99.90
23051;DHT22;11693;51.358;12.410;2022-11-25T03:01:40;9.70;99.90
23051;DHT22;11693;51.358;12.410;2022-11-25T03:04:06;9.60;99.90
23051;DHT22;11693;51.358;12.410;2022-11-25T03:06:32;9.60;99.90
23051;DHT22;11693;51.358;12.410;2022-11-25T03:08:58;9.60;99.90
23051;DHT22;11693;51.358;12.410;2022-11-25T03:11:24;9.50;99.90
23051;DHT22;11693;51.358;12.410;2022-11-25T03:14:10;9.50;99.90
23051;DHT22;11693;51.358;12.410;2022-11-25T03:16:35;9.60;99.90
23051;DHT22;11693;51.358;12.410;2022-11-25T03:19:01;9.50;99.90
23051;DHT22;11693;51.358;12.410;2022-11-25T03:21:26;9.50;99.90
23051;DHT22;11693;51.358;12.410;2022-11-25T03:23:52;9.50;99.90
23051;DHT22;11693;51.358;12.410;2022-11-25T03:26:18;9.50;99.90
23051;DHT22;11693;51.358;12.410;2022-11-25T03:28:43;9.60;99.90
23051;DHT22;11693;51.358;12.410;2022-11-25T03:31:10;9.70;99.90
23051;DHT22;11693;51.358;12.410;2022-11-25T03:33:36;9.70;99.90
23051;DHT22;11693;51.358;12.410;2022-11-25T03:36:01;9.60;99.90
23051;DHT22;11693;51.358;12.410;2022-11-25T03:38:27;9.50;99.90
23051;DHT22;11693;51.358;12.410;2022-11-25T03:40:52;9.40;99.90
23051;DHT22;11693;51.358;12.410;2022-11-25T03:43:18;9.40;99.90
23051;DHT22;11693;51.358;12.410;2022-11-25T03:45:47;9.40;99.90
23051;DHT22;11693;51.358;12.410;2022-11-25T03:48:13;9.40;99.90
23051;DHT22;11693;51.358;12.410;2022-11-25T03:50:39;9.50;99.90
23051;DHT22;11693;51.358;12.410;2022-11-25T03:53:04;9.50;99.90
23051;DHT22;11693;51.358;12.410;2022-11-25T03:55:30;9.50;99.90
23051;DHT22;11693;51.358;12.410;2022-11-25T03:57:55;9.30;99.90
23051;DHT22;11693;51.358;12.410;2022-11-25T04:00:21;9.50;99.90
23051;DHT22;11693;51.358;12.410;2022-11-25T04:02:47;9.50;99.90
23051;DHT22;11693;51.358;12.410;2022-11-25T04:05:12;9.50;99.90
23051;DHT22;11693;51.358;12.410;2022-11-25T04:07:38;9.40;99.90
23051;DHT22;11693;51.358;12.410;2022-11-25T04:10:04;9.40;99.90
23051;DHT22;11693;51.358;12.410;2022-11-25T04:12:30;9.40;99.90
23051;DHT22;11693;51.358;12.410;2022-11-25T04:15:11;9.40;99.90
23051;DHT22;11693;51.358;12.410;2022-11-25T04:17:36;9.50;99.90
23051;DHT22;11693;51.358;12.410;2022-11-25T04:20:03;9.50;99.90
23051;DHT22;11693;51.358;12.410;2022-11-25T04:22:29;9.40;99.90
23051;DHT22;11693;51.358;12.410;2022-11-25T04:24:54;9.30;99.90
23051;DHT22;11693;51.358;12.410;2022-11-25T04:27:20;9.30;99.90
23051;DHT22;11693;51.358;12.410;2022-11-25T04:29:45;9.30;99.90
23051;DHT22;11693;51.358;12.410;2022-11-25T04:32:11;9.30;99.90
23051;DHT22;11693;51.358;12.410;2022-11-25T04:34:37;9.30;99.90
23051;DHT22;11693;51.358;12.410;2022-11-25T04:37:03;9.30;99.90
23051;DHT22;11693;51.358;12.410;2022-11-25T04:39:28;9.30;99.90
23051;DHT22;11693;51.358;12.410;2022-11-25T04:41:54;9.30;99.90
23051;DHT22;11693;51.358;12.410;2022-11-25T04:44:39;9.20;99.90
23051;DHT22;11693;51.358;12.410;2022-11-25T04:47:05;9.20;99.90
23051;DHT22;11693;51.358;12.410;2022-11-25T04:49:30;9.10;99.90
23051;DHT22;11693;51.358;12.410;2022-11-25T04:51:56;9.10;99.90
23051;DHT22;11693;51.358;12.410;2022-11-25T04:54:22;9.20;99.90
23051;DHT22;11693;51.358;12.410;2022-11-25T04:56:47;9.20;99.90
23051;DHT22;11693;51.358;12.410;2022-11-25T04:59:13;9.20;99.90
23051;DHT22;11693;51.358;12.410;2022-11-25T05:01:57;9.20;99.90
23051;DHT22;11693;51.358;12.410;2022-11-25T05:04:22;9.20;99.90
23051;DHT22;11693;51.358;12.410;2022-11-25T05:06:48;9.20;99.90
23051;DHT22;11693;51.358;12.410;2022-11-25T05:09:16;9.10;99.90
23051;DHT22;11693;51.358;12.410;2022-11-25T05:11:41;9.10;99.90
23051;DHT22;11693;51.358;12.410;2022-11-25T05:14:07;9.10;99.90
23051;DHT22;11693;51.358;12.410;2022-11-25T05:16:33;9.10;99.90
23051;DHT22;11693;51.358;12.410;2022-11-25T05:18:59;9.10;99.90
23051;DHT22;11693;51.358;12.410;2022-11-25T05:21:25;9.10;99.90
23051;DHT22;11693;51.358;12.410;2022-11-25T05:23:52;8.90;99.90
23051;DHT22;11693;51.358;12.410;2022-11-25T05:26:18;8.90;99.90
23051;DHT22;11693;51.358;12.410;2022-11-25T05:28:43;8.90;99.90
23051;DHT22;11693;51.358;12.410;2022-11-25T05:31:09;8.90;99.90
23051;DHT22;11693;51.358;12.410;2022-11-25T05:33:34;8.90;99.90
23051;DHT22;11693;51.358;12.410;2022-11-25T05:36:03;8.90;99.90
23051;DHT22;11693;51.358;12.410;2022-11-25T05:38:29;9.00;99.90
23051;DHT22;11693;51.358;12.410;2022-11-25T05:41:05;9.00;99.90
23051;DHT22;11693;51.358;12.410;2022-11-25T05:43:32;9.00;99.90
23051;DHT22;11693;51.358;12.410;2022-11-25T05:46:02;9.00;99.90
23051;DHT22;11693;51.358;12.410;2022-11-25T05:48:28;9.20;99.90
23051;DHT22;11693;51.358;12.410;2022-11-25T05:50:53;9.10;99.90
23051;DHT22;11693;51.358;12.410;2022-11-25T05:53:19;9.10;99.90
23051;DHT22;11693;51.358;12.410;2022-11-25T05:55:57;9.10;99.90
23051;DHT22;11693;51.358;12.410;2022-11-25T05:58:23;8.90;99.90
23051;DHT22;11693;51.358;12.410;2022-11-25T06:00:49;8.90;99.90
23051;DHT22;11693;51.358;12.410;2022-11-25T06:03:14;8.90;99.90
23051;DHT22;11693;51.358;12.410;2022-11-25T06:05:40;8.90;99.90
23051;DHT22;11693;51.358;12.410;2022-11-25T06:08:06;8.90;99.90
23051;DHT22;11693;51.358;12.410;2022-11-25T06:10:32;8.90;99.90
23051;DHT22;11693;51.358;12.410;2022-11-25T06:12:58;8.90;99.90
23051;DHT22;11693;51.358;12.410;2022-11-25T06:15:23;8.90;99.90
23051;DHT22;11693;51.358;12.410;2022-11-25T06:17:49;8.90;99.90
23051;DHT22;11693;51.358;12.410;2022-11-25T06:20:15;8.90;99.90
23051;DHT22;11693;51.358;12.410;2022-11-25T06:22:40;8.80;99.90
23051;DHT22;11693;51.358;12.410;2022-11-25T06:25:07;8.90;99.90
23051;DHT22;11693;51.358;12.410;2022-11-25T06:27:32;8.90;99.90
23051;DHT22;11693;51.358;12.410;2022-11-25T06:29:58;8.90;99.90
23051;DHT22;11693;51.358;12.410;2022-11-25T06:32:24;8.90;99.90
23051;DHT22;11693;51.358;12.410;2022-11-25T06:34:50;8.80;99.90
23051;DHT22;11693;51.358;12.410;2022-11-25T06:37:15;8.80;99.90
23051;DHT22;11693;51.358;12.410;2022-11-25T06:39:41;8.90;99.90
23051;DHT22;11693;51.358;12.410;2022-11-25T06:42:07;9.10;99.90
23051;DHT22;11693;51.358;12.410;2022-11-25T06:44:32;8.90;99.90
23051;DHT22;11693;51.358;12.410;2022-11-25T06:46:58;8.90;99.90
23051;DHT22;11693;51.358;12.410;2022-11-25T06:49:23;8.90;99.90
23051;DHT22;11693;51.358;12.410;2022-11-25T06:51:49;9.00;99.90
23051;DHT22;11693;51.358;12.410;2022-11-25T06:54:15;9.00;99.90
23051;DHT22;11693;51.358;12.410;2022-11-25T06:56:41;9.00;99.90
23051;DHT22;11693;51.358;12.410;2022-11-25T06:59:06;9.00;99.90
23051;DHT22;11693;51.358;12.410;2022-11-25T07:01:32;8.90;99.90
23051;DHT22;11693;51.358;12.410;2022-11-25T07:04:00;9.10;99.90
23051;DHT22;11693;51.358;12.410;2022-11-25T07:06:28;9.00;99.90
23051;DHT22;11693;51.358;12.410;2022-11-25T07:08:54;9.00;99.90
23051;DHT22;11693;51.358;12.410;2022-11-25T07:11:23;9.10;99.90
23051;DHT22;11693;51.358;12.410;2022-11-25T07:13:55;9.10;99.90
23051;DHT22;11693;51.358;12.410;2022-11-25T07:16:21;9.30;99.90
23051;DHT22;11693;51.358;12.410;2022-11-25T07:18:47;9.40;99.90
23051;DHT22;11693;51.358;12.410;2022-11-25T07:21:16;9.70;99.90
23051;DHT22;11693;51.358;12.410;2022-11-25T07:23:43;10.00;99.90
23051;DHT22;11693;51.358;12.410;2022-11-25T07:28:35;10.50;99.90
23051;DHT22;11693;51.358;12.410;2022-11-25T07:31:11;10.70;99.90
23051;DHT22;11693;51.358;12.410;2022-11-25T07:33:38;11.00;99.90
23051;DHT22;11693;51.358;12.410;2022-11-25T07:36:05;11.30;99.90
23051;DHT22;11693;51.358;12.410;2022-11-25T07:38:32;11.70;99.90
23051;DHT22;11693;51.358;12.410;2022-11-25T07:43:31;12.10;99.90
23051;DHT22;11693;51.358;12.410;2022-11-25T07:46:17;12.10;99.90
23051;DHT22;11693;51.358;12.410;2022-11-25T07:48:43;12.10;99.90
23051;DHT22;11693;51.358;12.410;2022-11-25T07:51:33;11.80;99.90
23051;DHT22;11693;51.358;12.410;2022-11-25T07:54:01;11.90;99.90
23051;DHT22;11693;51.358;12.410;2022-11-25T07:56:28;12.00;99.90
23051;DHT22;11693;51.358;12.410;2022-11-25T07:58:55;12.00;99.90
23051;DHT22;11693;51.358;12.410;2022-11-25T08:01:21;11.80;99.90
23051;DHT22;11693;51.358;12.410;2022-11-25T08:03:48;11.80;99.90
23051;DHT22;11693;51.358;12.410;2022-11-25T08:06:20;11.60;99.90
23051;DHT22;11693;51.358;12.410;2022-11-25T08:08:46;11.50;99.90
23051;DHT22;11693;51.358;12.410;2022-11-25T08:11:32;11.40;99.90
23051;DHT22;11693;51.358;12.410;2022-11-25T08:13:58;11.40;99.90
23051;DHT22;11693;51.358;12.410;2022-11-25T08:16:25;11.20;99.90
23051;DHT22;11693;51.358;12.410;2022-11-25T08:18:53;11.00;99.90
23051;DHT22;11693;51.358;12.410;2022-11-25T08:21:19;10.90;99.90
23051;DHT22;11693;51.358;12.410;2022-11-25T08:23:45;11.00;99.90
23051;DHT22;11693;51.358;12.410;2022-11-25T08:26:25;11.20;99.90
23051;DHT22;11693;51.358;12.410;2022-11-25T08:28:52;11.40;99.90
23051;DHT22;11693;51.358;12.410;2022-11-25T08:31:21;11.50;99.90
23051;DHT22;11693;51.358;12.410;2022-11-25T08:33:47;11.80;99.90
23051;DHT22;11693;51.358;12.410;2022-11-25T08:36:14;11.80;99.90
23051;DHT22;11693;51.358;12.410;2022-11-25T08:38:40;11.70;99.90
23051;DHT22;11693;51.358;12.410;2022-11-25T08:41:12;11.70;99.90
23051;DHT22;11693;51.358;12.410;2022-11-25T08:43:38;12.00;99.90
23051;DHT22;11693;51.358;12.410;2022-11-25T08:46:09;12.10;99.90
23051;DHT22;11693;51.358;12.410;2022-11-25T08:48:35;12.30;99.90
23051;DHT22;11693;51.358;12.410;2022-11-25T08:51:01;12.60;99.90
23051;DHT22;11693;51.358;12.410;2022-11-25T08:53:31;12.90;99.90
23051;DHT22;11693;51.358;12.410;2022-11-25T08:55:56;13.10;99.90
23051;DHT22;11693;51.358;12.410;2022-11-25T08:58:22;13.30;99.90
23051;DHT22;11693;51.358;12.410;2022-11-25T09:00:48;13.40;99.90
23051;DHT22;11693;51.358;12.410;2022-11-25T09:03:13;13.40;99.90
23051;DHT22;11693;51.358;12.410;2022-11-25T09:05:41;13.50;99.90
23051;DHT22;11693;51.358;12.410;2022-11-25T09:08:08;13.70;99.90
23051;DHT22;11693;51.358;12.410;2022-11-25T09:10:35;13.90;99.90
23051;DHT22;11693;51.358;12.410;2022-11-25T09:13:00;13.90;99.90
23051;DHT22;11693;51.358;12.410;2022-11-25T09:15:26;13.90;99.90
23051;DHT22;11693;51.358;12.410;2022-11-25T09:17:59;13.70;99.90
23051;DHT22;11693;51.358;12.410;2022-11-25T09:20:26;13.30;99.90
23051;DHT22;11693;51.358;12.410;2022-11-25T09:22:51;13.10;99.90
23051;DHT22;11693;51.358;12.410;2022-11-25T09:25:17;13.00;99.90
23051;DHT22;11693;51.358;12.410;2022-11-25T09:27:43;13.00;99.90
23051;DHT22;11693;51.358;12.410;2022-11-25T09:30:09;13.00;99.90
23051;DHT22;11693;51.358;12.410;2022-11-25T09:32:34;13.00;99.90
23051;DHT22;11693;51.358;12.410;2022-11-25T09:35:00;12.80;99.90
23051;DHT22;11693;51.358;12.410;2022-11-25T09:37:26;12.80;99.90
23051;DHT22;11693;51.358;12.410;2022-11-25T09:39:52;12.80;99.90
23051;DHT22;11693;51.358;12.410;2022-11-25T09:42:33;12.90;99.90
23051;DHT22;11693;51.358;12.410;2022-11-25T09:45:32;12.90;99.90
23051;DHT22;11693;51.358;12.410;2022-11-25T09:51:22;12.80;99.90
23051;DHT22;11693;51.358;12.410;2022-11-25T09:53:54;12.80;99.90
23051;DHT22;11693;51.358;12.410;2022-11-25T09:56:44;12.70;99.90
23051;DHT22;11693;51.358;12.410;2022-11-25T09:59:28;12.80;99.90
23051;DHT22;11693;51.358;12.410;2022-11-25T10:02:02;12.80;99.90
23051;DHT22;11693;51.358;12.410;2022-11-25T10:04:37;13.00;99.90
23051;DHT22;11693;51.358;12.410;2022-11-25T10:07:10;13.10;99.90
23051;DHT22;11693;51.358;12.410;2022-11-25T10:09:39;13.10;99.90
23051;DHT22;11693;51.358;12.410;2022-11-25T10:12:29;13.00;99.90
23051;DHT22;11693;51.358;12.410;2022-11-25T10:15:04;13.20;99.90
23051;DHT22;11693;51.358;12.410;2022-11-25T10:17:51;13.00;99.90
23051;DHT22;11693;51.358;12.410;2022-11-25T10:20:23;13.00;99.90
23051;DHT22;11693;51.358;12.410;2022-11-25T10:22:56;12.90;99.90
23051;DHT22;11693;51.358;12.410;2022-11-25T10:25:27;13.00;99.90
23051;DHT22;11693;51.358;12.410;2022-11-25T10:28:03;13.00;99.90
23051;DHT22;11693;51.358;12.410;2022-11-25T10:30:54;13.00;99.90
23051;DHT22;11693;51.358;12.410;2022-11-25T10:33:32;13.10;99.90
23051;DHT22;11693;51.358;12.410;2022-11-25T10:39:09;13.40;99.90
23051;DHT22;11693;51.358;12.410;2022-11-25T10:41:50;13.50;99.90
23051;DHT22;11693;51.358;12.410;2022-11-25T10:44:34;13.60;99.90
23051;DHT22;11693;51.358;12.410;2022-11-25T10:52:34;13.90;99.90
23051;DHT22;11693;51.358;12.410;2022-11-25T10:55:17;13.70;99.90
23051;DHT22;11693;51.358;12.410;2022-11-25T10:57:43;13.90;99.90
23051;DHT22;11693;51.358;12.410;2022-11-25T11:00:31;14.10;99.90
23051;DHT22;11693;51.358;12.410;2022-11-25T11:03:00;14.40;99.90
23051;DHT22;11693;51.358;12.410;2022-11-25T11:05:29;14.60;99.90
23051;DHT22;11693;51.358;12.410;2022-11-25T11:08:19;15.00;99.90
23051;DHT22;11693;51.358;12.410;2022-11-25T11:10:46;15.20;99.90
23051;DHT22;11693;51.358;12.410;2022-11-25T11:13:27;15.20;99.90
23051;DHT22;11693;51.358;12.410;2022-11-25T11:15:57;15.10;99.90
23051;DHT22;11693;51.358;12.410;2022-11-25T11:18:27;15.20;99.90
23051;DHT22;11693;51.358;12.410;2022-11-25T11:20:55;15.00;99.90
23051;DHT22;11693;51.358;12.410;2022-11-25T11:23:22;14.70;99.90
23051;DHT22;11693;51.358;12.410;2022-11-25T11:25:58;14.60;99.90
23051;DHT22;11693;51.358;12.410;2022-11-25T11:31:01;14.60;99.90
23051;DHT22;11693;51.358;12.410;2022-11-25T11:41:35;14.50;99.90
23051;DHT22;11693;51.358;12.410;2022-11-25T11:44:22;14.80;99.90
23051;DHT22;11693;51.358;12.410;2022-11-25T11:47:07;14.90;99.90
23051;DHT22;11693;51.358;12.410;2022-11-25T11:49:57;15.10;99.90
23051;DHT22;11693;51.358;12.410;2022-11-25T11:58:19;14.80;99.90
23051;DHT22;11693;51.358;12.410;2022-11-25T12:01:01;14.70;99.90
23051;DHT22;11693;51.358;12.410;2022-11-25T12:03:35;14.60;99.90
23051;DHT22;11693;51.358;12.410;2022-11-25T12:06:03;14.60;99.90
23051;DHT22;11693;51.358;12.410;2022-11-25T12:08:50;14.80;99.90
23051;DHT22;11693;51.358;12.410;2022-11-25T12:11:20;14.70;99.90
23051;DHT22;11693;51.358;12.410;2022-11-25T12:14:08;14.70;99.90
23051;DHT22;11693;51.358;12.410;2022-11-25T12:16:56;14.70;99.90
23051;DHT22;11693;51.358;12.410;2022-11-25T12:19:42;14.60;99.90
23051;DHT22;11693;51.358;12.410;2022-11-25T12:22:18;14.60;99.90
23051;DHT22;11693;51.358;12.410;2022-11-25T12:30:14;14.70;99.90
23051;DHT22;11693;51.358;12.410;2022-11-25T12:35:29;14.70;99.90
23051;DHT22;11693;51.358;12.410;2022-11-25T12:43:33;14.60;99.90
23051;DHT22;11693;51.358;12.410;2022-11-25T12:46:23;14.60;99.90
23051;DHT22;11693;51.358;12.410;2022-11-25T12:48:51;14.50;99.90
23051;DHT22;11693;51.358;12.410;2022-11-25T12:54:00;14.60;99.90
23051;DHT22;11693;51.358;12.410;2022-11-25T12:56:47;14.60;99.90
23051;DHT22;11693;51.358;12.410;2022-11-25T13:02:41;14.80;99.90
23051;DHT22;11693;51.358;12.410;2022-11-25T13:11:27;14.80;99.90
23051;DHT22;11693;51.358;12.410;2022-11-25T13:14:00;14.80;99.90
23051;DHT22;11693;51.358;12.410;2022-11-25T13:16:29;14.80;99.90
23051;DHT22;11693;51.358;12.410;2022-11-25T13:18:55;14.90;99.90
23051;DHT22;11693;51.358;12.410;2022-11-25T13:21:22;14.90;99.90
23051;DHT22;11693;51.358;12.410;2022-11-25T13:23:56;14.90;99.90
23051;DHT22;11693;51.358;12.410;2022-11-25T13:28:57;14.90;99.90
23051;DHT22;11693;51.358;12.410;2022-11-25T13:31:28;14.90;99.90
23051;DHT22;11693;51.358;12.410;2022-11-25T13:36:47;14.80;99.90
23051;DHT22;11693;51.358;12.410;2022-11-25T13:39:16;14.80;99.90
23051;DHT22;11693;51.358;12.410;2022-11-25T13:41:59;14.80;99.90
23051;DHT22;11693;51.358;12.410;2022-11-25T13:44:35;14.70;99.90
23051;DHT22;11693;51.358;12.410;2022-11-25T13:47:23;14.50;99.90
23051;DHT22;11693;51.358;12.410;2022-11-25T13:49:55;14.50;99.90
23051;DHT22;11693;51.358;12.410;2022-11-25T13:52:38;14.60;99.90
23051;DHT22;11693;51.358;12.410;2022-11-25T14:11:43;14.30;99.90
23051;DHT22;11693;51.358;12.410;2022-11-25T14:25:27;14.20;99.90
23051;DHT22;11693;51.358;12.410;2022-11-25T14:30:49;13.90;99.90
23051;DHT22;11693;51.358;12.410;2022-11-25T14:33:19;14.00;99.90
23051;DHT22;11693;51.358;12.410;2022-11-25T14:35:54;13.80;99.90
23051;DHT22;11693;51.358;12.410;2022-11-25T14:38:28;13.80;99.90
23051;DHT22;11693;51.358;12.410;2022-11-25T14:43:54;13.70;99.90
23051;DHT22;11693;51.358;12.410;2022-11-25T14:46:23;13.70;99.90
23051;DHT22;11693;51.358;12.410;2022-11-25T14:48:55;13.70;99.90
23051;DHT22;11693;51.358;12.410;2022-11-25T14:51:22;13.60;99.90
23051;DHT22;11693;51.358;12.410;2022-11-25T14:53:49;13.60;99.90
23051;DHT22;11693;51.358;12.410;2022-11-25T14:56:30;13.70;99.90
23051;DHT22;11693;51.358;12.410;2022-11-25T14:58:58;13.70;99.90
23051;DHT22;11693;51.358;12.410;2022-11-25T15:01:31;13.60;99.90
23051;DHT22;11693;51.358;12.410;2022-11-25T15:06:37;13.60;99.90
23051;DHT22;11693;51.358;12.410;2022-11-25T15:09:21;13.40;99.90
23051;DHT22;11693;51.358;12.410;2022-11-25T15:11:51;13.30;99.90
23051;DHT22;11693;51.358;12.410;2022-11-25T15:14:47;13.30;99.90
23051;DHT22;11693;51.358;12.410;2022-11-25T15:19:48;13.20;99.90
23051;DHT22;11693;51.358;12.410;2022-11-25T15:22:18;13.10;99.90
23051;DHT22;11693;51.358;12.410;2022-11-25T15:24:45;13.00;99.90
23051;DHT22;11693;51.358;12.410;2022-11-25T15:29:41;12.80;99.90
23051;DHT22;11693;51.358;12.410;2022-11-25T15:32:13;12.80;99.90
23051;DHT22;11693;51.358;12.410;2022-11-25T15:34:39;12.80;99.90
23051;DHT22;11693;51.358;12.410;2022-11-25T15:37:04;12.70;99.90
23051;DHT22;11693;51.358;12.410;2022-11-25T15:39:30;12.70;99.90
23051;DHT22;11693;51.358;12.410;2022-11-25T15:42:15;12.80;99.90
23051;DHT22;11693;51.358;12.410;2022-11-25T15:45:05;12.80;99.90
23051;DHT22;11693;51.358;12.410;2022-11-25T15:47:33;12.70;99.90
23051;DHT22;11693;51.358;12.410;2022-11-25T15:50:03;12.70;99.90
23051;DHT22;11693;51.358;12.410;2022-11-25T15:52:31;12.70;99.90
23051;DHT22;11693;51.358;12.410;2022-11-25T15:55:06;12.70;99.90
23051;DHT22;11693;51.358;12.410;2022-11-25T15:57:34;12.70;99.90
23051;DHT22;11693;51.358;12.410;2022-11-25T16:18:38;12.40;99.90
23051;DHT22;11693;51.358;12.410;2022-11-25T16:26:56;12.50;99.90
23051;DHT22;11693;51.358;12.410;2022-11-25T16:29:54;12.60;99.90
23051;DHT22;11693;51.358;12.410;2022-11-25T16:32:29;12.60;99.90
23051;DHT22;11693;51.358;12.410;2022-11-25T16:34:56;12.80;99.90
23051;DHT22;11693;51.358;12.410;2022-11-25T16:37:24;12.70;99.90
23051;DHT22;11693;51.358;12.410;2022-11-25T16:39:50;12.70;99.90
23051;DHT22;11693;51.358;12.410;2022-11-25T16:42:20;12.80;99.90
23051;DHT22;11693;51.358;12.410;2022-11-25T16:44:48;12.70;99.90
23051;DHT22;11693;51.358;12.410;2022-11-25T16:47:14;12.70;99.90
23051;DHT22;11693;51.358;12.410;2022-11-25T16:49:40;12.80;99.90
23051;DHT22;11693;51.358;12.410;2022-11-25T16:52:06;12.90;99.90
23051;DHT22;11693;51.358;12.410;2022-11-25T16:54:31;12.80;99.90
23051;DHT22;11693;51.358;12.410;2022-11-25T16:56:58;12.90;99.90
23051;DHT22;11693;51.358;12.410;2022-11-25T16:59:27;12.90;99.90
23051;DHT22;11693;51.358;12.410;2022-11-25T17:01:53;13.00;99.90
23051;DHT22;11693;51.358;12.410;2022-11-25T17:04:19;12.90;99.90
23051;DHT22;11693;51.358;12.410;2022-11-25T17:06:44;12.90;99.90
23051;DHT22;11693;51.358;12.410;2022-11-25T17:09:11;12.90;99.90
23051;DHT22;11693;51.358;12.410;2022-11-25T17:11:43;12.90;99.90
23051;DHT22;11693;51.358;12.410;2022-11-25T17:14:17;12.90;99.90
23051;DHT22;11693;51.358;12.410;2022-11-25T17:16:45;12.80;99.90
23051;DHT22;11693;51.358;12.410;2022-11-25T17:19:15;12.80;99.90
23051;DHT22;11693;51.358;12.410;2022-11-25T17:21:42;12.80;99.90
23051;DHT22;11693;51.358;12.410;2022-11-25T17:24:22;12.80;99.90
23051;DHT22;11693;51.358;12.410;2022-11-25T17:27:00;12.80;99.90
23051;DHT22;11693;51.358;12.410;2022-11-25T17:29:34;12.90;99.90
23051;DHT22;11693;51.358;12.410;2022-11-25T17:32:01;12.90;99.90
23051;DHT22;11693;51.358;12.410;2022-11-25T17:34:27;12.90;99.90
23051;DHT22;11693;51.358;12.410;2022-11-25T17:36:53;12.90;99.90
23051;DHT22;11693;51.358;12.410;2022-11-25T17:39:18;12.90;99.90
23051;DHT22;11693;51.358;12.410;2022-11-25T17:41:47;12.80;99.90
23051;DHT22;11693;51.358;12.410;2022-11-25T17:44:23;12.80;99.90
23051;DHT22;11693;51.358;12.410;2022-11-25T17:46:49;12.80;99.90
23051;DHT22;11693;51.358;12.410;2022-11-25T17:49:15;12.70;99.90
23051;DHT22;11693;51.358;12.410;2022-11-25T17:51:42;12.80;99.90
23051;DHT22;11693;51.358;12.410;2022-11-25T17:54:08;12.70;99.90